Latest Weather Observations for Mortlake

IDV60801

Issued at 9:02 am EDT Thursday 29 January 2015 (issued every 30 minutes, with the page automatically refreshed every 10 minutes)

About weather observations | Map of weather stations | Latest weather observations for VIC | Other Formats
Station Details ID: 090176 Name: MORTLAKE RACECOURSE Lat: -38.07 Lon: 142.77 Height: 130.0 m
Data from the previous 72 hours. | See also: Recent months at Mortlake
Date/Time
EDT
Temp
°C
App
Temp
°C
Dew
Point
Rel
Hum
%
Delta-T
°C
Wind Press
QNH
hPa
Press
MSL
hPa
Rain
since 9 am
mm
Dir
 
Spd
km/h
Gust
km/h
Spd
kts
Gust
kts
29/09:00am 17.0 15.3 12.3 74 2.6 SE 13 19 7 10 1021.9 1021.6 0.0
29/08:30am 15.3 13.6 12.4 83 1.6 SE 13 17 7 9 1021.6 1021.4 0.0
29/08:00am 13.4 11.6 12.1 92 0.7 SE 13 15 7 8 1021.3 1021.0 0.0
29/07:30am 11.5 10.6 11.3 99 0.1 SE 7 11 4 6 1021.0 1020.7 0.0
29/07:00am 9.7 7.9 9.6 99 0.1 SE 9 11 5 6 1020.8 1020.5 0.0
29/06:30am 8.4 6.9 8.3 99 0.0 SSE 6 6 3 3 1020.5 1020.2 0.0
29/06:00am 9.1 7.6 8.6 97 0.2 SSE 6 7 3 4 1020.3 1020.0 0.0
29/05:30am 10.1 8.9 9.6 97 0.3 SSE 6 7 3 4 1020.2 1019.9 0.0
29/05:00am 9.8 8.5 9.3 97 0.2 SSE 6 7 3 4 1020.1 1019.8 0.0
29/04:30am 9.9 8.1 9.3 96 0.3 SSE 9 11 5 6 1020.0 1019.7 0.0
29/04:00am 9.7 8.1 8.9 95 0.4 SE 7 11 4 6 1020.0 1019.7 0.0
29/03:30am 9.2 7.1 8.4 95 0.4 SE 9 11 5 6 1020.0 1019.7 0.0
29/03:00am 10.1 9.0 9.8 98 0.2 SE 6 7 3 4 1020.1 1019.8 0.0
29/02:30am 8.5 6.8 7.7 95 0.4 SE 6 7 3 4 1020.3 1020.0 0.0
29/02:00am 8.3 5.9 7.2 93 0.5 SSE 9 11 5 6 1020.4 1020.1 0.0
29/01:30am 9.7 7.7 8.6 93 0.5 SSE 9 9 5 5 1020.9 1020.6 0.0
29/01:00am 9.2 7.9 7.8 91 0.7 SE 4 6 2 3 1021.0 1020.7 0.0
29/12:30am 9.9 7.8 8.2 89 0.8 SE 9 13 5 7 1021.0 1020.7 0.0
29/12:00am 10.5 8.7 8.1 85 1.2 SE 7 9 4 5 1021.1 1020.8 0.0
 
Date/Time
EDT
Temp
°C
App
Temp
°C
Dew
Point
Rel
Hum
%
Delta-T
°C
Wind Press
QNH
hPa
Press
MSL
hPa
Rain
since 9 am
mm
Dir
 
Spd
km/h
Gust
km/h
Spd
kts
Gust
kts
28/11:30pm 11.7 9.2 8.4 80 1.6 SSE 11 13 6 7 1021.1 1020.8 0.0
28/11:00pm 12.5 9.7 8.6 77 1.9 SE 13 19 7 10 1021.2 1020.9 0.0
28/10:30pm 13.2 10.0 8.5 73 2.4 SE 15 20 8 11 1021.2 1020.9 0.0
28/10:00pm 13.9 10.6 8.1 68 2.9 SE 15 20 8 11 1021.0 1020.7 0.0
28/09:30pm 14.1 11.5 7.9 66 3.1 SE 11 15 6 8 1020.6 1020.3 0.0
28/09:00pm 15.8 13.3 8.3 61 3.8 SE 11 17 6 9 1020.5 1020.2 0.0
28/08:30pm 17.6 12.6 8.2 54 4.8 SE 24 32 13 17 1020.1 1019.8 0.0
28/08:00pm 18.9 13.6 8.3 50 5.5 ESE 26 35 14 19 1019.6 1019.3 0.0
28/07:30pm 20.1 14.9 8.8 48 6.0 SE 26 35 14 19 1019.3 1019.0 0.0
28/07:00pm 20.8 15.6 8.8 46 6.3 ESE 26 37 14 20 1019.1 1018.8 0.0
28/06:30pm 21.7 15.6 8.2 42 7.1 ESE 30 43 16 23 1018.9 1018.6 0.0
28/06:00pm 22.5 16.6 9.0 42 7.2 ESE 30 43 16 23 1018.8 1018.5 0.0
28/05:30pm 22.6 16.7 9.0 42 7.3 ESE 30 43 16 23 1018.8 1018.5 0.0
28/05:00pm 23.3 17.8 9.0 40 7.7 SE 28 43 15 23 1018.6 1018.3 0.0
28/04:30pm 23.7 18.1 8.9 39 8.0 ESE 28 39 15 21 1018.5 1018.2 0.0
28/04:03pm 23.9 18.2 8.3 37 8.3 ESE 28 52 15 28 1018.4 1018.1 0.0
28/04:00pm 24.5 19.4 9.3 38 8.3 SE 26 37 14 20 1018.5 1018.2 0.0
28/03:30pm 24.2 18.9 9.8 40 7.9 ESE 28 41 15 22 1018.7 1018.4 0.0
28/03:00pm 23.7 18.1 8.9 39 8.0 ESE 28 41 15 22 1018.7 1018.4 0.0
28/02:34pm 23.4 17.8 8.7 39 7.9 ESE 28 46 15 25 1018.8 1018.5 0.0
28/02:30pm 23.8 18.8 9.4 40 7.9 ESE 26 46 14 25 1018.7 1018.4 0.0
28/02:00pm 23.2 18.0 8.9 40 7.7 ESE 26 41 14 22 1019.0 1018.7 0.0
28/01:30pm 22.7 17.1 8.8 41 7.5 SE 28 39 15 21 1019.0 1018.7 0.0
28/01:00pm 21.9 17.1 8.8 43 7.0 SE 24 43 13 23 1019.2 1018.9 0.0
28/12:30pm 22.3 18.7 10.5 47 6.5 SE 20 30 11 16 1019.3 1019.0 0.0
28/12:00pm 20.9 17.7 10.1 50 5.9 ESE 17 30 9 16 1019.4 1019.1 0.0
28/11:30am 19.8 16.2 10.0 53 5.3 SE 19 30 10 16 1019.6 1019.3 0.0
28/11:00am 19.5 16.2 10.8 57 4.7 SE 19 28 10 15 1019.7 1019.4 0.0
28/10:30am 17.6 14.1 10.2 62 4.0 SE 19 32 10 17 1019.8 1019.5 0.0
28/10:00am 17.1 14.2 10.9 67 3.3 SE 17 24 9 13 1019.8 1019.5 0.0
28/09:30am 16.9 14.1 11.4 70 3.0 SE 17 28 9 15 1019.6 1019.3 0.0
28/09:00am 15.9 12.8 11.5 75 2.4 SE 19 24 10 13 1019.5 1019.2 0.2
28/08:30am 14.6 12.6 11.4 81 1.7 SSE 13 19 7 10 1019.5 1019.2 -
28/08:00am 12.7 11.7 11.1 90 0.8 SSE 7 9 4 5 1019.2 1018.9 -
28/07:30am 10.7 9.3 9.6 93 0.6 S 7 9 4 5 1018.9 1018.6 -
28/07:00am 10.0 7.8 9.4 96 0.3 SSE 11 11 6 6 1018.5 1018.2 -
28/06:30am 8.8 7.1 8.2 96 0.3 SSE 7 9 4 5 1018.4 1018.1 -
28/06:00am 8.8 7.2 8.0 95 0.4 S 6 7 3 4 1018.3 1018.0 -
28/05:30am 9.1 6.6 8.2 94 0.4 S 11 13 6 7 1018.0 1017.7 -
28/05:00am 9.5 7.8 8.3 92 0.6 S 7 9 4 5 1018.0 1017.7 -
28/04:30am 9.5 7.8 8.3 92 0.6 S 7 7 4 4 1018.0 1017.7 -
28/04:00am 10.7 9.2 9.0 89 0.8 SSE 7 9 4 5 1018.2 1017.9 -
28/03:30am 10.9 9.6 9.3 90 0.8 SSE 6 7 3 4 1018.4 1018.1 -
28/03:00am 10.9 9.5 9.5 91 0.7 SSE 7 9 4 5 1018.6 1018.3 0.0
28/02:30am 10.1 8.2 9.0 93 0.5 SSE 9 9 5 5 1018.8 1018.5 -
28/02:00am 8.9 7.0 7.4 90 0.7 S 7 9 4 5 1019.0 1018.7 -
28/01:30am 11.2 9.7 9.1 87 1.1 SSE 7 7 4 4 1019.1 1018.8 -
28/01:00am 11.8 10.5 9.2 84 1.3 SSE 6 6 3 3 1019.3 1019.0 -
28/12:30am 12.4 11.0 9.4 82 1.5 SSE 7 9 4 5 1019.2 1018.9 -
28/12:00am 11.7 9.7 8.6 81 1.5 SSE 9 13 5 7 1019.3 1019.0 -
 
Date/Time
EDT
Temp
°C
App
Temp
°C
Dew
Point
Rel
Hum
%
Delta-T
°C
Wind Press
QNH
hPa
Press
MSL
hPa
Rain
since 9 am
mm
Dir
 
Spd
km/h
Gust
km/h
Spd
kts
Gust
kts
27/11:30pm 11.2 9.3 9.1 87 1.1 SSE 9 9 5 5 1019.4 1019.1 -
27/11:00pm 11.5 8.7 8.7 83 1.4 SSE 13 13 7 7 1019.5 1019.2 -
27/10:30pm 13.2 10.6 9.5 78 1.9 SSE 13 19 7 10 1019.5 1019.2 -
27/10:00pm 13.1 9.3 9.2 77 2.0 SSE 19 24 10 13 1019.4 1019.1 -
27/09:30pm 13.2 10.0 8.5 73 2.4 SSE 15 24 8 13 1019.3 1019.0 -
27/09:00pm 13.8 9.9 8.6 71 2.6 SSE 19 28 10 15 1019.2 1018.9 0.0
27/08:30pm 14.7 8.8 8.9 68 3.0 SSE 30 39 16 21 1019.0 1018.7 -
27/08:00pm 15.4 9.2 7.9 61 3.8 SSE 30 35 16 19 1018.6 1018.3 -
27/07:30pm 16.4 10.6 7.9 57 4.3 SSE 28 35 15 19 1018.3 1018.0 -
27/07:00pm 16.3 11.8 8.5 60 4.0 SSE 22 32 12 17 1018.2 1017.9 -
27/06:30pm 17.0 11.6 9.4 61 4.0 SSE 28 41 15 22 1017.8 1017.5 -
27/06:00pm 16.3 10.5 9.3 63 3.6 S 30 41 16 22 1017.5 1017.2 -
27/05:30pm 16.8 11.1 8.2 57 4.4 SSE 28 37 15 20 1017.5 1017.2 -
27/05:00pm 16.5 11.1 8.2 58 4.2 SSE 26 35 14 19 1017.6 1017.3 -
27/04:30pm 17.3 12.3 7.9 54 4.8 S 24 33 13 18 1017.8 1017.5 -
27/04:00pm 17.9 13.6 7.9 52 5.1 SSE 20 28 11 15 1017.7 1017.4 -
27/03:30pm 17.8 13.7 8.6 55 4.8 SSE 20 28 11 15 1017.9 1017.6 -
27/03:00pm 17.1 12.7 8.8 58 4.3 S 22 33 12 18 1018.0 1017.7 0.2
27/02:30pm 16.8 11.3 9.2 61 4.0 S 28 37 15 20 1018.1 1017.8 -
27/02:00pm 16.3 10.8 9.0 62 3.8 SSE 28 35 15 19 1018.3 1018.0 -
27/01:30pm 17.2 12.7 9.9 62 3.9 SSE 24 33 13 18 1018.3 1018.0 -
27/01:00pm 17.2 13.7 8.6 57 4.4 SSE 17 24 9 13 1018.4 1018.1 -
27/12:30pm 16.7 - - - - SSE 20 30 11 16 1018.6 1018.3 -
27/12:08pm 16.2 - - - - WNW 13 56 7 30 1018.7 1018.4 -
27/12:00pm 17.7 - - - - N 7 19 4 10 1018.6 1018.3 -
27/11:30am 18.9 14.9 8.3 50 5.5 SSE 19 28 10 15 1018.7 1018.4 0.0
27/11:00am 15.8 11.8 8.3 61 3.8 SSE 19 28 10 15 1018.8 1018.5 0.0
27/10:30am 16.1 13.2 8.1 59 4.1 SSE 13 20 7 11 1018.8 1018.5 0.0
27/10:00am 15.1 12.0 9.0 67 3.1 S 15 20 8 11 1018.9 1018.6 0.0
27/09:30am 15.9 12.4 8.6 62 3.7 SSE 17 24 9 13 1018.8 1018.5 0.0
27/09:00am 14.3 12.7 10.3 77 2.1 SSE 9 20 5 11 1018.7 1018.4 0.2
27/08:30am 11.3 9.9 9.7 90 0.8 SSE 7 9 4 5 1018.5 1018.2 0.2
27/08:00am 9.5 9.4 9.4 99 0.0 CALM 0 0 0 0 1018.1 1017.8 0.2
27/07:30am 6.3 5.4 6.2 99 0.0 CALM 0 0 0 0 1017.9 1017.6 0.2
27/07:00am 4.2 2.9 4.1 99 0.0 CALM 0 0 0 0 1017.8 1017.5 0.2
27/06:30am 3.4 2.0 3.3 99 0.0 CALM 0 0 0 0 1017.7 1017.4 0.2
27/06:00am 4.3 3.0 4.2 99 0.0 CALM 0 0 0 0 1017.5 1017.2 0.2
27/05:30am 4.9 3.7 4.8 99 0.0 CALM 0 0 0 0 1017.3 1017.0 0.2
27/05:00am 4.6 3.3 4.3 98 0.1 CALM 0 0 0 0 1017.3 1017.0 0.2
27/04:30am 4.5 3.2 4.2 98 0.1 CALM 0 0 0 0 1017.4 1017.1 0.2
27/04:00am 5.2 4.1 4.9 98 0.1 CALM 0 0 0 0 1017.6 1017.3 0.2
27/03:30am 4.8 3.5 4.2 96 0.3 CALM 0 0 0 0 1017.7 1017.4 0.2
27/03:00am 5.7 4.6 5.3 97 0.2 CALM 0 0 0 0 1017.9 1017.6 0.2
27/02:30am 6.1 5.1 5.5 96 0.3 CALM 0 0 0 0 1017.9 1017.6 0.2
27/02:00am 6.0 4.9 5.1 94 0.4 CALM 0 0 0 0 1018.1 1017.8 0.2
27/01:30am 7.4 6.6 6.5 94 0.4 CALM 0 0 0 0 1018.2 1017.9 0.2
27/01:00am 6.8 5.8 5.4 91 0.6 CALM 0 0 0 0 1018.4 1018.1 0.2
27/12:30am 7.9 6.3 6.5 91 0.6 SSE 4 4 2 2 1018.5 1018.2 0.2
27/12:00am 8.3 6.4 6.6 89 0.8 S 6 6 3 3 1018.5 1018.2 0.2
 
Date/Time
EDT
Temp
°C
App
Temp
°C
Dew
Point
Rel
Hum
%
Delta-T
°C
Wind Press
QNH
hPa
Press
MSL
hPa
Rain
since 9 am
mm
Dir
 
Spd
km/h
Gust
km/h
Spd
kts
Gust
kts
26/11:30pm 9.1 7.0 6.7 85 1.1 S 7 7 4 4 1018.6 1018.3 0.2
26/11:00pm 9.8 7.5 7.4 85 1.1 S 9 9 5 5 1018.9 1018.6 0.2
26/10:30pm 9.6 6.8 7.0 84 1.2 S 11 13 6 7 1019.0 1018.7 0.2
26/10:00pm 10.1 7.8 7.3 83 1.3 S 9 13 5 7 1018.9 1018.6 0.2
26/09:30pm 11.2 8.9 7.5 78 1.8 S 9 13 5 7 1018.7 1018.4 0.2
26/09:00pm 12.7 9.6 7.4 70 2.6 S 13 17 7 9 1018.4 1018.1 0.2
26/08:30pm 14.1 10.5 6.7 61 3.6 S 15 20 8 11 1018.1 1017.8 0.2
26/08:00pm 15.2 11.0 7.5 60 3.8 S 19 26 10 14 1017.9 1017.6 0.2
26/07:30pm 16.2 11.7 6.9 54 4.6 SSE 20 28 11 15 1017.5 1017.2 0.2
26/07:00pm 16.8 12.2 6.6 51 5.0 S 20 28 11 15 1017.2 1016.9 0.2
26/06:30pm 17.3 12.4 7.1 51 5.1 S 22 30 12 16 1016.7 1016.4 0.2
26/06:00pm 16.1 11.2 7.1 55 4.5 S 22 30 12 16 1016.8 1016.5 0.2
26/05:30pm 16.4 11.7 7.6 56 4.4 S 22 30 12 16 1016.9 1016.6 0.2
26/05:00pm 16.4 12.1 7.9 57 4.3 S 20 32 11 17 1017.1 1016.8 0.2
26/04:30pm 16.6 12.0 8.1 57 4.3 S 22 32 12 17 1017.2 1016.9 0.2
26/04:00pm 16.8 12.5 7.7 55 4.6 S 20 28 11 15 1017.3 1017.0 0.2
26/03:30pm 16.8 12.5 8.0 56 4.5 S 20 33 11 18 1017.3 1017.0 0.2
26/03:00pm 16.9 12.2 7.8 55 4.6 SSE 22 32 12 17 1017.2 1016.9 0.2
26/02:30pm 16.8 12.5 7.7 55 4.6 S 20 30 11 16 1017.2 1016.9 0.2
26/02:00pm 17.7 13.7 8.3 54 4.8 SSW 19 30 10 16 1017.3 1017.0 0.2
26/01:30pm 16.3 12.9 7.8 57 4.3 SSW 15 24 8 13 1017.6 1017.3 0.2
26/01:00pm 16.1 12.4 7.8 58 4.2 SW 17 26 9 14 1017.7 1017.4 0.2
26/12:30pm 16.7 13.4 8.1 57 4.4 SSW 15 24 8 13 1017.6 1017.3 0.2
26/12:00pm 15.3 11.1 8.1 62 3.6 SSW 20 26 11 14 1017.9 1017.6 0.2
26/11:30am 16.1 13.7 6.8 54 4.6 SW 9 15 5 8 1018.0 1017.7 0.2
26/11:00am 15.9 13.0 6.3 53 4.7 SSW 11 20 6 11 1018.2 1017.9 0.2
26/10:30am 15.8 14.1 8.3 61 3.8 SSW 7 17 4 9 1018.2 1017.9 0.0
26/10:00am 13.5 12.0 8.6 72 2.5 SSW 6 9 3 5 1018.0 1017.7 0.0
26/09:30am 13.4 11.8 8.0 70 2.7 W 6 9 3 5 1018.1 1017.8 0.0

Other Formats:

Comma delimited format used in spreadsheet applications
http://www.bom.gov.au/fwo/IDV60801/IDV60801.94840.axf

JavaScript Object Notation format (JSON) in row-major order
http://www.bom.gov.au/fwo/IDV60801/IDV60801.94840.json